TAF SEMT
SEMT 261635Z 2618/2718 30010KT 9999 BKN023 BECMG 2623/2624 21008KT BECMG 2706/2708 OVC020 TX28/2620Z TN22/2710Z=
METAR SEMT
WC SEMT
WS SEMT
WV SEMT